createdAt,value
2024-03-10T00:01:05.121Z,66.80
2024-03-10T00:03:37.181Z,66.80
2024-03-10T00:06:10.227Z,67.16
2024-03-10T00:08:44.289Z,67.49
2024-03-10T00:11:16.673Z,67.67
2024-03-10T00:13:48.073Z,67.66
2024-03-10T00:16:19.448Z,67.75
2024-03-10T00:18:50.945Z,67.47
2024-03-10T00:21:24.099Z,67.00
2024-03-10T00:23:55.893Z,67.45
2024-03-10T00:26:28.709Z,67.64
2024-03-10T00:29:00.317Z,67.60
2024-03-10T00:31:32.086Z,67.20
2024-03-10T00:34:03.601Z,67.21
2024-03-10T00:36:34.823Z,66.89
2024-03-10T00:39:06.477Z,66.68
2024-03-10T00:41:38.181Z,66.58
2024-03-10T00:44:10.289Z,66.58
2024-03-10T00:46:42.059Z,66.61
2024-03-10T00:49:15.687Z,67.14
2024-03-10T00:51:47.283Z,67.20
2024-03-10T00:54:19.198Z,67.60
2024-03-10T00:56:51.116Z,67.45
2024-03-10T00:59:22.767Z,67.30
2024-03-10T01:01:54.844Z,67.61
2024-03-10T01:04:26.408Z,67.47
2024-03-10T01:06:58.326Z,67.59
2024-03-10T01:09:30.750Z,67.48
2024-03-10T01:12:02.818Z,67.61
2024-03-10T01:14:35.086Z,67.93
2024-03-10T01:17:08.095Z,67.65
2024-03-10T01:19:41.295Z,67.22
2024-03-10T01:22:12.939Z,67.32
2024-03-10T01:24:45.168Z,67.65
2024-03-10T01:27:16.604Z,67.68
2024-03-10T01:29:48.123Z,67.37
2024-03-10T01:32:20.303Z,67.76
2024-03-10T01:34:52.180Z,67.94
2024-03-10T01:37:23.548Z,67.70
2024-03-10T01:39:54.991Z,67.98
2024-03-10T01:42:27.209Z,68.26
2024-03-10T01:44:59.749Z,67.97
2024-03-10T01:47:31.234Z,67.40
2024-03-10T01:50:03.710Z,67.17
2024-03-10T01:52:36.094Z,67.45
2024-03-10T01:55:09.619Z,67.77
2024-03-10T01:57:41.979Z,67.88
2024-03-10T02:00:14.938Z,67.47
2024-03-10T02:02:46.442Z,67.12
2024-03-10T02:05:18.725Z,67.38
2024-03-10T02:07:50.201Z,67.43
2024-03-10T02:10:22.712Z,67.64
2024-03-10T02:12:54.010Z,67.50
2024-03-10T02:15:25.355Z,67.36
2024-03-10T02:17:58.282Z,67.21
2024-03-10T02:20:29.799Z,66.82
2024-03-10T02:23:01.431Z,66.44
2024-03-10T02:25:37.238Z,66.53
2024-03-10T02:28:22.022Z,66.80
2024-03-10T02:30:59.098Z,66.87
2024-03-10T02:33:47.786Z,67.01
2024-03-10T02:36:36.572Z,67.15
2024-03-10T02:39:25.417Z,67.48
2024-03-10T02:42:14.127Z,67.15
2024-03-10T02:45:03.112Z,67.47
2024-03-10T02:47:34.542Z,67.63
2024-03-10T02:50:07.365Z,67.42
2024-03-10T02:52:38.831Z,67.49
2024-03-10T02:55:13.426Z,67.55
2024-03-10T02:57:49.298Z,67.47
2024-03-10T03:00:22.682Z,67.36
2024-03-10T03:02:54.020Z,67.41
2024-03-10T03:05:27.956Z,67.28
2024-03-10T03:08:01.285Z,67.39
2024-03-10T03:10:32.653Z,67.07
2024-03-10T03:13:04.021Z,67.25
2024-03-10T03:15:35.320Z,67.89
2024-03-10T03:18:08.644Z,68.18
2024-03-10T03:20:41.334Z,68.16
2024-03-10T03:23:12.836Z,68.01
2024-03-10T03:25:44.170Z,67.56
2024-03-10T03:28:16.588Z,67.83
2024-03-10T03:30:49.389Z,67.71
2024-03-10T03:33:21.764Z,67.62
2024-03-10T03:35:53.630Z,67.09
2024-03-10T03:38:25.197Z,66.77
2024-03-10T03:40:56.516Z,67.17
2024-03-10T03:43:27.886Z,67.50
2024-03-10T03:45:59.711Z,67.43
2024-03-10T03:48:31.047Z,68.02
2024-03-10T03:51:02.381Z,67.71
2024-03-10T03:53:33.764Z,67.50
2024-03-10T03:56:05.228Z,66.98
2024-03-10T03:58:36.763Z,66.81
2024-03-10T04:01:08.351Z,66.83
2024-03-10T04:03:45.222Z,66.79
2024-03-10T04:06:23.282Z,66.96
2024-03-10T04:09:03.074Z,67.35
2024-03-10T04:11:34.684Z,67.61
2024-03-10T04:14:07.541Z,67.74
2024-03-10T04:16:40.299Z,67.81
2024-03-10T04:19:11.624Z,67.61
2024-03-10T04:21:43.021Z,67.58
2024-03-10T04:24:14.865Z,67.50
2024-03-10T04:26:46.671Z,67.57
2024-03-10T04:29:19.302Z,67.71
2024-03-10T04:31:51.569Z,68.06
2024-03-10T04:34:23.052Z,67.70
2024-03-10T04:36:54.620Z,67.48
2024-03-10T04:39:27.149Z,67.46
2024-03-10T04:41:58.420Z,67.46
2024-03-10T04:44:30.132Z,67.57
2024-03-10T04:47:01.423Z,67.86
2024-03-10T04:49:34.939Z,67.29
2024-03-10T04:52:10.300Z,67.14
2024-03-10T04:54:42.729Z,67.22
2024-03-10T04:57:13.998Z,67.48
2024-03-10T04:59:45.646Z,67.53
2024-03-10T05:02:17.013Z,67.80
2024-03-10T05:04:51.313Z,67.89
2024-03-10T05:07:22.705Z,68.10
2024-03-10T05:09:54.086Z,67.52
2024-03-10T05:12:25.696Z,67.50
2024-03-10T05:14:57.297Z,67.69
2024-03-10T05:17:31.167Z,67.81
2024-03-10T05:20:02.827Z,67.88
2024-03-10T05:22:36.356Z,67.43
2024-03-10T05:25:10.094Z,67.67
2024-03-10T05:27:42.960Z,67.95
2024-03-10T05:30:16.980Z,68.43
2024-03-10T05:32:48.662Z,68.41
2024-03-10T05:35:20.261Z,68.16
2024-03-10T05:37:51.660Z,67.76
2024-03-10T05:40:23.127Z,67.74
2024-03-10T05:42:54.341Z,67.76
2024-03-10T05:45:25.804Z,67.87
2024-03-10T05:47:58.758Z,68.55
2024-03-10T05:50:30.724Z,68.06
2024-03-10T05:53:02.205Z,67.82
2024-03-10T05:55:34.565Z,67.62
2024-03-10T05:58:06.265Z,67.71
2024-03-10T06:00:38.064Z,67.49
2024-03-10T06:03:10.732Z,67.20
2024-03-10T06:05:42.125Z,66.97
2024-03-10T06:08:13.642Z,66.70
2024-03-10T06:10:45.158Z,66.93
2024-03-10T06:13:17.158Z,67.14
2024-03-10T06:15:49.342Z,67.21
2024-03-10T06:18:26.501Z,67.16
2024-03-10T06:21:15.125Z,66.97
2024-03-10T06:24:03.872Z,67.16
2024-03-10T06:26:38.138Z,67.40
2024-03-10T06:29:09.940Z,66.37
2024-03-10T06:31:41.493Z,65.54
2024-03-10T06:34:13.009Z,64.84
2024-03-10T06:36:44.626Z,64.06
2024-03-10T06:39:21.222Z,63.48
2024-03-10T06:41:53.582Z,62.79
2024-03-10T06:44:25.069Z,63.14
2024-03-10T06:46:56.848Z,62.60
2024-03-10T06:49:28.595Z,61.76
2024-03-10T06:51:59.909Z,61.19
2024-03-10T06:54:31.371Z,59.72
2024-03-10T06:57:03.669Z,59.81
2024-03-10T06:59:35.747Z,59.43
2024-03-10T07:02:09.406Z,58.77
2024-03-10T07:04:42.018Z,58.09
2024-03-10T07:07:13.557Z,57.59
2024-03-10T07:09:44.776Z,57.17
2024-03-10T07:12:16.219Z,57.13
2024-03-10T07:14:49.168Z,57.83
2024-03-10T07:17:22.304Z,58.38
2024-03-10T07:19:53.921Z,59.11
2024-03-10T07:22:25.397Z,59.71
2024-03-10T07:24:57.192Z,59.73
2024-03-10T07:27:28.820Z,59.90
2024-03-10T07:30:00.345Z,60.43
2024-03-10T07:32:31.856Z,60.92
2024-03-10T07:35:04.190Z,61.04
2024-03-10T07:37:35.920Z,61.24
2024-03-10T07:40:16.920Z,61.61
2024-03-10T07:42:49.500Z,61.99
2024-03-10T07:45:21.029Z,61.93
2024-03-10T07:47:52.656Z,61.94
2024-03-10T07:50:25.546Z,61.99
2024-03-10T07:52:57.248Z,62.00
2024-03-10T07:55:32.113Z,62.18
2024-03-10T07:58:03.967Z,61.69
2024-03-10T08:00:35.769Z,61.69
2024-03-10T08:03:07.750Z,61.48
2024-03-10T08:05:39.446Z,61.61
2024-03-10T08:08:11.866Z,61.26
2024-03-10T08:10:47.961Z,61.83
2024-03-10T08:13:19.770Z,61.57
2024-03-10T08:15:51.680Z,61.74
2024-03-10T08:18:23.659Z,61.07
2024-03-10T08:20:55.603Z,61.27
2024-03-10T08:23:27.276Z,60.70
2024-03-10T08:26:01.599Z,60.48
2024-03-10T08:28:33.257Z,60.40
2024-03-10T08:31:05.851Z,60.23
2024-03-10T08:33:39.065Z,60.12
2024-03-10T08:36:12.328Z,60.02
2024-03-10T08:38:44.038Z,59.46
2024-03-10T08:41:16.028Z,58.42
2024-03-10T08:43:47.769Z,58.98
2024-03-10T08:46:19.153Z,59.05
2024-03-10T08:48:50.570Z,59.46
2024-03-10T08:51:22.282Z,59.44
2024-03-10T08:53:54.161Z,59.38
2024-03-10T08:56:26.031Z,59.20
2024-03-10T08:58:58.441Z,59.32
2024-03-10T09:01:29.938Z,59.54
2024-03-10T09:04:04.133Z,59.44
2024-03-10T09:06:36.338Z,58.57
2024-03-10T09:09:09.734Z,58.02
2024-03-10T09:11:42.133Z,57.82
2024-03-10T09:14:13.644Z,56.78
2024-03-10T09:16:45.975Z,56.69
2024-03-10T09:19:17.398Z,56.35
2024-03-10T09:21:50.706Z,56.21
2024-03-10T09:24:22.081Z,56.63
2024-03-10T09:26:53.550Z,56.71
2024-03-10T09:29:27.780Z,56.84
2024-03-10T09:32:00.672Z,56.12
2024-03-10T09:34:32.984Z,55.93
2024-03-10T09:37:08.502Z,55.91
2024-03-10T09:39:40.319Z,56.20
2024-03-10T09:42:15.801Z,55.99
2024-03-10T09:44:49.100Z,55.67
2024-03-10T09:47:21.711Z,55.19
2024-03-10T09:49:53.984Z,55.33
2024-03-10T09:52:26.099Z,55.39
2024-03-10T09:55:03.474Z,55.06
2024-03-10T09:57:36.383Z,54.73
2024-03-10T10:00:14.814Z,54.52
2024-03-10T10:02:48.025Z,54.70
2024-03-10T10:05:31.693Z,54.99
2024-03-10T10:08:09.536Z,54.73
2024-03-10T10:10:44.031Z,54.47
2024-03-10T10:13:28.550Z,54.34
2024-03-10T10:16:09.865Z,54.59
2024-03-10T10:18:51.361Z,54.75
2024-03-10T10:21:31.428Z,53.93
2024-03-10T10:24:03.582Z,54.15
2024-03-10T10:26:38.757Z,54.27
2024-03-10T10:29:13.273Z,53.84
2024-03-10T10:31:57.302Z,53.31
2024-03-10T10:34:29.934Z,52.93
2024-03-10T10:37:02.982Z,52.73
2024-03-10T10:39:36.622Z,52.67
2024-03-10T10:42:15.656Z,52.71
2024-03-10T10:44:54.651Z,52.87
2024-03-10T10:47:26.785Z,52.57
2024-03-10T10:49:58.635Z,52.73
2024-03-10T10:52:31.155Z,52.68
2024-03-10T10:55:03.994Z,52.71
2024-03-10T10:57:42.723Z,52.42
2024-03-10T11:00:30.360Z,52.25
2024-03-10T11:03:16.795Z,51.79
2024-03-10T11:06:10.430Z,52.00
2024-03-10T11:08:44.185Z,52.39
2024-03-10T11:11:18.412Z,52.05
2024-03-10T11:13:50.154Z,51.28
2024-03-10T11:16:27.448Z,51.01
2024-03-10T11:19:16.035Z,50.90
2024-03-10T11:21:51.596Z,50.91
2024-03-10T11:24:27.852Z,50.55
2024-03-10T11:27:17.380Z,49.94
2024-03-10T11:29:50.401Z,49.87
2024-03-10T11:32:37.076Z,49.87
2024-03-10T11:35:11.864Z,50.12
2024-03-10T11:37:42.178Z,50.29
2024-03-10T11:40:17.764Z,50.83
2024-03-10T11:42:50.550Z,50.46
2024-03-10T11:45:27.084Z,49.86
2024-03-10T11:48:00.610Z,50.25
2024-03-10T11:50:32.652Z,50.30
2024-03-10T11:53:05.185Z,49.92
2024-03-10T11:55:36.943Z,49.75
2024-03-10T11:58:10.459Z,50.05
2024-03-10T12:00:42.750Z,50.01
2024-03-10T12:03:14.908Z,50.19
2024-03-10T12:05:46.712Z,49.54
2024-03-10T12:08:22.310Z,49.77
2024-03-10T12:11:02.431Z,49.76
2024-03-10T12:13:34.751Z,50.05
2024-03-10T12:16:07.857Z,49.61
2024-03-10T12:18:42.551Z,49.12
2024-03-10T12:21:16.176Z,49.00
2024-03-10T12:23:48.820Z,49.20
2024-03-10T12:26:21.381Z,49.53
2024-03-10T12:28:53.762Z,49.29
2024-03-10T12:31:30.364Z,49.27
2024-03-10T12:34:04.347Z,49.81
2024-03-10T12:36:37.054Z,49.81
2024-03-10T12:39:12.970Z,50.23
2024-03-10T12:41:46.236Z,50.36
2024-03-10T12:44:18.155Z,49.82
2024-03-10T12:46:50.264Z,50.17
2024-03-10T12:49:22.248Z,49.77
2024-03-10T12:51:54.378Z,49.99
2024-03-10T12:54:25.974Z,49.80
2024-03-10T12:56:57.390Z,49.68
2024-03-10T12:59:29.551Z,49.51
2024-03-10T13:02:01.953Z,49.23
2024-03-10T13:04:33.973Z,49.49
2024-03-10T13:07:06.400Z,49.08
2024-03-10T13:09:38.145Z,48.67
2024-03-10T13:12:12.163Z,48.84
2024-03-10T13:14:43.962Z,48.84
2024-03-10T13:17:15.751Z,48.43
2024-03-10T13:19:47.226Z,48.95
2024-03-10T13:22:19.981Z,48.59
2024-03-10T13:24:51.704Z,48.78
2024-03-10T13:27:23.380Z,49.30
2024-03-10T13:29:54.692Z,49.28
2024-03-10T13:32:26.444Z,49.00
2024-03-10T13:34:58.356Z,49.30
2024-03-10T13:37:30.017Z,49.31
2024-03-10T13:40:05.622Z,49.44
2024-03-10T13:42:39.019Z,49.29
2024-03-10T13:45:16.981Z,49.19
2024-03-10T13:47:54.703Z,48.79
2024-03-10T13:50:27.227Z,48.80
2024-03-10T13:52:59.036Z,48.71
2024-03-10T13:55:31.730Z,48.62
2024-03-10T13:58:05.902Z,48.25
2024-03-10T14:00:39.193Z,48.38
2024-03-10T14:03:11.810Z,48.57
2024-03-10T14:05:43.313Z,47.97
2024-03-10T14:08:15.335Z,47.63
2024-03-10T14:10:47.574Z,46.97
2024-03-10T14:13:20.300Z,46.87
2024-03-10T14:15:51.763Z,46.98
2024-03-10T14:18:25.316Z,47.37
2024-03-10T14:20:56.821Z,47.66
2024-03-10T14:23:28.286Z,47.97
2024-03-10T14:25:59.744Z,47.63
2024-03-10T14:28:32.113Z,47.72
2024-03-10T14:31:04.605Z,47.89
2024-03-10T14:33:36.197Z,48.23
2024-03-10T14:36:09.969Z,48.29
2024-03-10T14:38:42.443Z,47.98
2024-03-10T14:41:14.064Z,48.02
2024-03-10T14:43:46.121Z,47.83
2024-03-10T14:46:23.736Z,47.87
2024-03-10T14:48:54.974Z,48.18
2024-03-10T14:51:27.758Z,48.22
2024-03-10T14:53:59.330Z,47.98
2024-03-10T14:56:32.311Z,48.02
2024-03-10T14:59:03.910Z,48.19
2024-03-10T15:01:36.779Z,47.86
2024-03-10T15:04:10.552Z,47.92
2024-03-10T15:06:43.202Z,48.10
2024-03-10T15:09:16.357Z,48.47
2024-03-10T15:11:48.331Z,48.77
2024-03-10T15:14:21.323Z,49.02
2024-03-10T15:16:53.346Z,49.07
2024-03-10T15:19:26.684Z,49.13
2024-03-10T15:21:59.928Z,49.43
2024-03-10T15:24:33.614Z,49.21
2024-03-10T15:27:08.190Z,49.36
2024-03-10T15:29:40.275Z,49.62
2024-03-10T15:32:13.532Z,49.42
2024-03-10T15:34:45.264Z,49.30
2024-03-10T15:37:19.276Z,49.65
2024-03-10T15:39:53.135Z,50.19
2024-03-10T15:42:25.517Z,49.81
2024-03-10T15:44:59.824Z,50.15
2024-03-10T15:47:36.676Z,50.06
2024-03-10T15:50:13.228Z,50.07
2024-03-10T15:52:46.783Z,50.28
2024-03-10T15:55:19.261Z,50.39
2024-03-10T15:57:52.913Z,50.59
2024-03-10T16:00:27.218Z,50.27
2024-03-10T16:03:04.431Z,49.77
2024-03-10T16:05:40.606Z,50.02
2024-03-10T16:08:13.665Z,49.85
2024-03-10T16:10:48.190Z,49.87
2024-03-10T16:13:26.789Z,50.09
2024-03-10T16:15:59.274Z,50.29
2024-03-10T16:18:31.835Z,50.44
2024-03-10T16:21:05.242Z,50.35
2024-03-10T16:23:37.100Z,50.40
2024-03-10T16:26:09.697Z,50.17
2024-03-10T16:28:41.473Z,49.92
2024-03-10T16:31:14.876Z,50.03
2024-03-10T16:33:49.953Z,50.09
2024-03-10T16:36:21.665Z,50.25
2024-03-10T16:38:58.955Z,50.55
2024-03-10T16:41:34.436Z,50.67
2024-03-10T16:44:08.250Z,50.76
2024-03-10T16:46:44.778Z,51.08
2024-03-10T16:49:31.136Z,51.29
2024-03-10T16:52:09.247Z,51.87
2024-03-10T16:57:41.109Z,51.82
2024-03-10T17:00:21.730Z,51.69
2024-03-10T17:02:56.921Z,51.78
2024-03-10T17:05:31.688Z,51.72
2024-03-10T17:08:06.428Z,51.94
2024-03-10T17:10:43.775Z,51.85
2024-03-10T17:13:23.530Z,52.29
2024-03-10T17:16:05.096Z,52.13
2024-03-10T17:18:42.152Z,52.17
2024-03-10T17:21:22.367Z,52.68
2024-03-10T17:23:57.345Z,52.16
2024-03-10T17:26:32.689Z,52.52
2024-03-10T17:29:08.548Z,52.60
2024-03-10T17:31:43.891Z,51.95
2024-03-10T17:34:19.205Z,52.08
2024-03-10T17:36:52.759Z,52.17
2024-03-10T17:39:27.231Z,51.87
2024-03-10T17:41:59.912Z,52.56
2024-03-10T17:44:37.002Z,52.52
2024-03-10T17:47:11.182Z,52.56
2024-03-10T17:49:45.238Z,52.70
2024-03-10T17:52:22.505Z,52.65
2024-03-10T17:54:58.537Z,52.77
2024-03-10T17:57:32.729Z,52.90
2024-03-10T18:00:09.194Z,52.81
2024-03-10T18:02:45.753Z,52.98
2024-03-10T18:05:29.575Z,52.87
2024-03-10T18:08:06.930Z,53.11
2024-03-10T18:10:46.920Z,52.92
2024-03-10T18:13:22.270Z,52.39
2024-03-10T18:16:01.587Z,52.33
2024-03-10T18:18:42.867Z,52.57
2024-03-10T18:21:15.700Z,53.11
2024-03-10T18:23:58.782Z,52.99
2024-03-10T18:26:35.063Z,52.94
2024-03-10T18:29:09.339Z,53.51
2024-03-10T18:31:44.372Z,54.15
2024-03-10T18:34:19.832Z,55.28
2024-03-10T18:36:52.836Z,56.00
2024-03-10T18:39:29.637Z,56.63
2024-03-10T18:42:06.588Z,56.70
2024-03-10T18:44:39.970Z,57.05
2024-03-10T18:47:15.069Z,57.26
2024-03-10T18:49:49.976Z,57.11
2024-03-10T18:52:22.919Z,56.95
2024-03-10T18:54:56.019Z,56.92
2024-03-10T18:57:30.129Z,56.81
2024-03-10T19:00:03.052Z,55.97
2024-03-10T19:02:37.000Z,55.52
2024-03-10T19:05:13.541Z,55.82
2024-03-10T19:07:49.576Z,56.02
2024-03-10T19:10:21.972Z,55.96
2024-03-10T19:12:54.646Z,55.71
2024-03-10T19:15:27.179Z,55.73
2024-03-10T19:18:01.117Z,55.86
2024-03-10T19:20:35.009Z,56.04
2024-03-10T19:23:09.132Z,55.59
2024-03-10T19:25:42.469Z,55.36
2024-03-10T19:28:20.478Z,54.94
2024-03-10T19:31:06.634Z,54.87
2024-03-10T19:33:44.795Z,55.16
2024-03-10T19:36:18.389Z,54.88
2024-03-10T19:38:52.688Z,55.33
2024-03-10T19:41:27.291Z,55.40
2024-03-10T19:43:59.580Z,55.59
2024-03-10T19:46:33.575Z,55.70
2024-03-10T19:49:06.068Z,55.80
2024-03-10T19:51:39.595Z,55.85
2024-03-10T19:54:17.660Z,55.69
2024-03-10T19:57:10.710Z,55.64
2024-03-10T19:59:50.409Z,56.15
2024-03-10T20:02:27.211Z,56.37
2024-03-10T20:05:02.075Z,56.51
2024-03-10T20:07:37.056Z,56.82
2024-03-10T20:10:14.549Z,56.89
2024-03-10T20:12:57.125Z,56.92
2024-03-10T20:15:36.166Z,56.91
2024-03-10T20:18:14.895Z,57.03
2024-03-10T20:20:55.570Z,57.72
2024-03-10T20:23:31.880Z,58.22
2024-03-10T20:26:09.681Z,58.41
2024-03-10T20:28:49.705Z,58.34
2024-03-10T20:31:25.566Z,58.10
2024-03-10T20:34:01.287Z,58.54
2024-03-10T20:36:35.031Z,58.65
2024-03-10T20:39:24.816Z,59.10
2024-03-10T20:42:02.499Z,59.49
2024-03-10T20:44:38.629Z,59.79
2024-03-10T20:47:12.386Z,60.40
2024-03-10T20:49:45.655Z,60.88
2024-03-10T20:52:19.050Z,61.27
2024-03-10T20:54:52.782Z,61.17
2024-03-10T20:57:26.257Z,61.36
2024-03-10T20:59:58.499Z,61.56
2024-03-10T21:02:31.706Z,61.70
2024-03-10T21:05:04.466Z,62.18
2024-03-10T21:07:38.387Z,62.24
2024-03-10T21:10:16.396Z,62.22
2024-03-10T21:12:48.893Z,62.00
2024-03-10T21:15:22.689Z,61.92
2024-03-10T21:17:56.539Z,61.87
2024-03-10T21:20:32.500Z,62.10
2024-03-10T21:23:06.540Z,62.30
2024-03-10T21:25:42.328Z,62.48
2024-03-10T21:28:15.759Z,62.83
2024-03-10T21:30:47.740Z,62.98
2024-03-10T21:33:20.098Z,62.98
2024-03-10T21:35:52.626Z,63.33
2024-03-10T21:38:24.471Z,63.48
2024-03-10T21:40:57.139Z,63.53
2024-03-10T21:43:29.419Z,63.64
2024-03-10T21:46:02.635Z,63.35
2024-03-10T21:48:34.486Z,63.63
2024-03-10T21:51:07.419Z,63.98
2024-03-10T21:53:39.480Z,63.74
2024-03-10T21:56:12.077Z,63.76
2024-03-10T21:58:43.811Z,63.96
2024-03-10T22:01:15.534Z,63.95
2024-03-10T22:03:48.081Z,63.58
2024-03-10T22:06:20.630Z,63.85
2024-03-10T22:08:53.460Z,63.71
2024-03-10T22:11:25.351Z,63.83
2024-03-10T22:13:59.802Z,63.41
2024-03-10T22:16:33.081Z,63.56
2024-03-10T22:19:04.673Z,63.03
2024-03-10T22:21:37.790Z,63.05
2024-03-10T22:24:09.899Z,63.05
2024-03-10T22:26:41.708Z,63.33
2024-03-10T22:29:13.997Z,63.77
2024-03-10T22:31:45.471Z,63.77
2024-03-10T22:34:17.188Z,63.62
2024-03-10T22:36:49.730Z,63.28
2024-03-10T22:39:21.370Z,63.37
2024-03-10T22:41:55.161Z,63.35
2024-03-10T22:44:27.994Z,63.47
2024-03-10T22:47:00.481Z,63.44
2024-03-10T22:49:32.822Z,63.35
2024-03-10T22:52:04.961Z,62.84
2024-03-10T22:54:37.162Z,62.31
2024-03-10T22:57:10.292Z,62.14
2024-03-10T22:59:42.709Z,62.33
2024-03-10T23:02:14.630Z,61.93
2024-03-10T23:04:49.353Z,61.62
2024-03-10T23:07:21.038Z,60.97
2024-03-10T23:09:52.727Z,60.27
2024-03-10T23:12:25.272Z,60.23
2024-03-10T23:14:56.918Z,60.33
2024-03-10T23:17:28.842Z,60.78
2024-03-10T23:20:01.472Z,61.36
2024-03-10T23:22:33.270Z,61.50
2024-03-10T23:25:05.983Z,61.44
2024-03-10T23:27:39.014Z,61.46
2024-03-10T23:30:14.038Z,60.95
2024-03-10T23:32:46.293Z,60.37
2024-03-10T23:35:19.746Z,59.73
2024-03-10T23:37:51.857Z,59.11
2024-03-10T23:40:25.237Z,59.11
2024-03-10T23:42:58.180Z,58.56
2024-03-10T23:45:31.452Z,58.32
2024-03-10T23:48:03.625Z,59.01
2024-03-10T23:50:35.792Z,59.06
2024-03-10T23:53:08.407Z,59.38
2024-03-10T23:55:43.956Z,59.56
2024-03-10T23:58:15.555Z,59.37
